Flight Track Log - Related Links

Times and Time Zones

All times are in EDT time to prevent confusion due to time zone crossing. See the KLM1072 flight status page for this flight to view local times or setup timezone preferences in your user account.

Time Position Orientation Groundspeed Altitude Reporting Facility
EDT Latitude Longitude Course Direction KTS MPH feet Rate Location/Type
Wed 01:07:00 AM 53.2407 -1.3339 101° East  Level Estimated
Wed 01:08:00 AM 53.2301 -1.2486 102° East  Level Estimated
Wed 01:09:00 AM 53.2194 -1.1634 102° East  Level Estimated
Wed 01:10:00 AM 53.2086 -1.0782 102° East  Level Estimated
Wed 01:11:00 AM 53.1978 -0.9930 102° East  Level Estimated
Wed 01:12:00 AM 53.1869 -0.9079 102° East  Level Estimated
Wed 01:13:00 AM 53.1760 -0.8228 102° East  Level Estimated
Wed 01:14:00 AM 53.1650 -0.7377 102° East  Level Estimated
Wed 01:15:00 AM 53.1539 -0.6527 102° East  Level Estimated
Wed 01:16:00 AM 53.1428 -0.5678 102° East  Level Estimated
Wed 01:17:00 AM 53.1316 -0.4829 102° East  Level Estimated
Wed 01:18:00 AM 53.1203 -0.3980 102° East  Level Estimated
Wed 01:19:00 AM 53.1090 -0.3132 102° East  Level Estimated
Wed 01:20:00 AM 53.0977 -0.2284 103° East  Level Estimated
Wed 01:21:00 AM 53.0862 -0.1437 103° East  Level Estimated
Wed 01:22:00 AM 53.0747 -0.0590 103° East  Level Estimated
Wed 01:23:00 AM 53.0632 0.0257 103° East  Level Estimated
Wed 01:24:00 AM 53.0516 0.1102 103° East  Level Estimated
Wed 01:25:00 AM 53.0399 0.1948 103° East  Level Estimated
Wed 01:26:00 AM 53.0282 0.2793 103° East  Level Estimated
Wed 01:27:00 AM 53.0164 0.3638 103° East  Level Estimated
Wed 01:28:00 AM 53.0045 0.4482 103° East  Level Estimated
Wed 01:29:00 AM 52.9853 0.5844 103° East  Level Estimated
Wed 01:30:00 AM 52.9659 0.7206 103° East  Level Estimated
Wed 01:31:00 AM 52.9463 0.8566 103° East  Level Estimated
Wed 01:32:00 AM 52.9266 0.9925 103° East  Level Estimated
Wed 01:33:00 AM 52.9067 1.1282 104° East  Level Estimated
Wed 01:34:00 AM 52.8866 1.2639 104° East  Level Estimated
Wed 01:35:00 AM 52.8664 1.3994 104° East  Level Estimated
Wed 01:36:00 AM 52.8461 1.5348 104° East  Level Estimated
Wed 01:37:00 AM 52.8256 1.6700 104° East  Level Estimated
Wed 01:38:00 AM 52.8049 1.8052 104° East  Level Estimated
Wed 01:39:00 AM 52.7841 1.9402 104° East  Level Estimated
Wed 01:40:00 AM 52.7632 2.0750 104° East  Level Estimated
Wed 01:41:00 AM 52.7421 2.2098 104° East  Level Estimated
Wed 01:42:00 AM 52.7208 2.3444 105° East  Level Estimated
Wed 01:43:00 AM 52.6994 2.4789 105° East  Level Estimated
Wed 01:44:00 AM 52.6778 2.6132 105° East  Level Estimated
Wed 01:45:00 AM 52.6596 2.7258 105° East  Level Estimated
Wed 01:46:00 AM 52.6413 2.8383 105° East  Level Estimated
Wed 01:47:00 AM 52.6228 2.9507 105° East  Level Estimated
Wed 01:48:00 AM 52.6043 3.0629 105° East  Level Estimated
Wed 01:49:00 AM 52.5857 3.1751 105° East  Level Estimated
Wed 01:50:00 AM 52.5669 3.2873 105° East  Level Estimated
Wed 01:51:00 AM 52.5481 3.3993 105° East  Level Estimated
Wed 01:52:00 AM 52.5291 3.5112 106° East  Level Estimated
Wed 01:53:00 AM 52.5101 3.6230 106° East  Level Estimated
Wed 01:54:00 AM 52.4909 3.7347 106° East  Level Estimated
Wed 01:55:00 AM 52.4716 3.8463 106° East  Level Estimated
Wed 01:56:00 AM 52.4523 3.9578 106° East  Level Estimated
Wed 01:57:00 AM 52.4328 4.0693 106° East  Level Estimated
Wed 01:58:00 AM 52.4132 4.1806 106° East  Level Estimated
Wed 01:59:00 AM 52.3941 4.2883 106° East  Level Estimated
Wed 02:00:00 AM 52.3750 4.3960 106° East  Level Estimated
Wed 02:01:00 AM 52.3557 4.5036 106° East  Level Estimated
Wed 02:02:00 AM 52.3363 4.6110 106° East  Level Estimated
Wed 02:03:00 AM 52.3169 4.7184 106° East  Level Estimated
Wed 02:04:00 AM 52.3086 4.7639 107° East  Level Estimated
Wed 02:05:00 AM 52.3086 4.7639 348° North  Level Estimated
Wed 02:06:00 AM 52.3086 4.7639 348° North  Level Estimated
Wed 02:07:00 AM 52.3086 4.7639 348° North  Level Estimated
Wed 02:08:00 AM 52.3086 4.7639 348° North  Level Estimated
Wed 02:09:00 AM 52.3086 4.7639 348° North  Level Estimated
Wed 02:10:00 AM 52.3086 4.7639 348° North  Level Estimated
Wed 02:11:00 AM 52.3086 4.7639 348° North  Level Estimated
Wed 02:12:00 AM 52.3086 4.7639 348° North  Level Estimated
Wed 02:13:00 AM 52.3086 4.7639 348° North  Level Estimated
Wed 02:14:00 AM 52.3086 4.7639 348° North  Level Estimated
Wed 02:15:00 AM 52.3086 4.7639 348° North  Level Estimated
Wed 02:16:00 AM 52.3086 4.7639 348° North  Level Estimated

Login

Don't have an account? Register now (free) for customized features, flight alerts, and more!